sensor_id;sensor_type;location;lat;lon;timestamp;pressure;altitude;pressure_sealevel;temperature;humidity
50632;BME280;49583;45.590;-122.498;2023-07-02T00:00:15;101529.19;;;30.70;27.75
50632;BME280;49583;45.590;-122.498;2023-07-02T00:02:48;101529.92;;;30.72;28.07
50632;BME280;49583;45.590;-122.498;2023-07-02T00:05:00;101534.79;;;30.74;28.04
50632;BME280;49583;45.590;-122.498;2023-07-02T00:07:13;101528.47;;;30.74;28.36
50632;BME280;49583;45.590;-122.498;2023-07-02T00:09:26;101529.30;;;30.79;28.15
50632;BME280;49583;45.590;-122.498;2023-07-02T00:11:40;101527.96;;;30.80;28.31
50632;BME280;49583;45.590;-122.498;2023-07-02T00:13:53;101532.44;;;30.81;28.39
50632;BME280;49583;45.590;-122.498;2023-07-02T00:16:05;101529.24;;;30.81;28.50
50632;BME280;49583;45.590;-122.498;2023-07-02T00:18:18;101527.48;;;30.80;28.36
50632;BME280;49583;45.590;-122.498;2023-07-02T00:20:32;101524.78;;;30.77;28.08
50632;BME280;49583;45.590;-122.498;2023-07-02T00:22:48;101522.34;;;30.76;28.29
50632;BME280;49583;45.590;-122.498;2023-07-02T00:25:00;101520.64;;;30.76;27.98
50632;BME280;49583;45.590;-122.498;2023-07-02T00:27:13;101514.42;;;30.74;27.85
50632;BME280;49583;45.590;-122.498;2023-07-02T00:29:27;101508.55;;;30.73;27.93
50632;BME280;49583;45.590;-122.498;2023-07-02T00:31:39;101507.75;;;30.74;28.41
50632;BME280;49583;45.590;-122.498;2023-07-02T00:33:53;101505.27;;;30.73;28.62
50632;BME280;49583;45.590;-122.498;2023-07-02T00:36:06;101506.58;;;30.72;28.40
50632;BME280;49583;45.590;-122.498;2023-07-02T00:38:23;101500.92;;;30.70;28.29
50632;BME280;49583;45.590;-122.498;2023-07-02T00:40:36;101500.52;;;30.68;28.54
50632;BME280;49583;45.590;-122.498;2023-07-02T00:42:49;101502.42;;;30.67;28.55
50632;BME280;49583;45.590;-122.498;2023-07-02T00:45:01;101497.25;;;30.64;28.30
50632;BME280;49583;45.590;-122.498;2023-07-02T00:47:18;101494.12;;;30.60;28.52
50632;BME280;49583;45.590;-122.498;2023-07-02T00:49:30;101490.63;;;30.56;28.85
50632;BME280;49583;45.590;-122.498;2023-07-02T00:51:46;101489.20;;;30.48;28.73
50632;BME280;49583;45.590;-122.498;2023-07-02T00:54:00;101488.61;;;30.43;28.79
50632;BME280;49583;45.590;-122.498;2023-07-02T00:56:15;101482.60;;;30.41;29.16
50632;BME280;49583;45.590;-122.498;2023-07-02T00:58:28;101482.30;;;30.36;29.23
50632;BME280;49583;45.590;-122.498;2023-07-02T01:00:41;101482.29;;;30.34;29.39
50632;BME280;49583;45.590;-122.498;2023-07-02T01:02:59;101480.34;;;30.31;29.49
50632;BME280;49583;45.590;-122.498;2023-07-02T01:05:16;101474.98;;;30.26;29.60
50632;BME280;49583;45.590;-122.498;2023-07-02T01:07:32;101479.90;;;30.21;29.73
50632;BME280;49583;45.590;-122.498;2023-07-02T01:09:45;101478.94;;;30.17;29.66
50632;BME280;49583;45.590;-122.498;2023-07-02T01:11:59;101477.80;;;30.10;29.63
50632;BME280;49583;45.590;-122.498;2023-07-02T01:14:15;101471.73;;;30.07;29.98
50632;BME280;49583;45.590;-122.498;2023-07-02T01:16:30;101471.05;;;30.06;30.04
50632;BME280;49583;45.590;-122.498;2023-07-02T01:18:45;101472.40;;;30.05;30.03
50632;BME280;49583;45.590;-122.498;2023-07-02T01:20:58;101473.36;;;30.01;30.02
50632;BME280;49583;45.590;-122.498;2023-07-02T01:23:12;101471.98;;;30.00;30.19
50632;BME280;49583;45.590;-122.498;2023-07-02T01:25:25;101470.83;;;29.97;30.15
50632;BME280;49583;45.590;-122.498;2023-07-02T01:27:38;101471.25;;;29.95;30.07
50632;BME280;49583;45.590;-122.498;2023-07-02T01:29:53;101470.88;;;29.92;30.29
50632;BME280;49583;45.590;-122.498;2023-07-02T01:32:06;101472.05;;;29.88;30.28
50632;BME280;49583;45.590;-122.498;2023-07-02T01:34:20;101466.26;;;29.82;30.35
50632;BME280;49583;45.590;-122.498;2023-07-02T01:36:32;101466.05;;;29.76;30.54
50632;BME280;49583;45.590;-122.498;2023-07-02T01:38:45;101467.96;;;29.73;30.51
50632;BME280;49583;45.590;-122.498;2023-07-02T01:40:58;101468.35;;;29.70;30.55
50632;BME280;49583;45.590;-122.498;2023-07-02T01:43:11;101468.20;;;29.62;30.38
50632;BME280;49583;45.590;-122.498;2023-07-02T01:45:24;101469.81;;;29.57;30.57
50632;BME280;49583;45.590;-122.498;2023-07-02T01:47:36;101473.27;;;29.54;30.81
50632;BME280;49583;45.590;-122.498;2023-07-02T01:49:52;101474.04;;;29.51;30.77
50632;BME280;49583;45.590;-122.498;2023-07-02T01:52:05;101475.11;;;29.45;30.65
50632;BME280;49583;45.590;-122.498;2023-07-02T01:54:18;101476.21;;;29.42;30.72
50632;BME280;49583;45.590;-122.498;2023-07-02T01:56:30;101473.42;;;29.39;30.87
50632;BME280;49583;45.590;-122.498;2023-07-02T01:58:43;101476.11;;;29.37;30.81
50632;BME280;49583;45.590;-122.498;2023-07-02T02:00:56;101479.10;;;29.31;30.78
50632;BME280;49583;45.590;-122.498;2023-07-02T02:03:09;101476.53;;;29.25;30.71
50632;BME280;49583;45.590;-122.498;2023-07-02T02:05:23;101475.98;;;29.23;30.92
50632;BME280;49583;45.590;-122.498;2023-07-02T02:07:35;101477.96;;;29.20;30.95
50632;BME280;49583;45.590;-122.498;2023-07-02T02:09:50;101475.71;;;29.16;30.93
50632;BME280;49583;45.590;-122.498;2023-07-02T02:12:02;101478.27;;;29.11;30.73
50632;BME280;49583;45.590;-122.498;2023-07-02T02:14:16;101474.54;;;29.04;30.57
50632;BME280;49583;45.590;-122.498;2023-07-02T02:16:29;101472.58;;;28.97;30.68
50632;BME280;49583;45.590;-122.498;2023-07-02T02:18:44;101473.36;;;28.88;30.57
50632;BME280;49583;45.590;-122.498;2023-07-02T02:20:57;101469.92;;;28.80;30.83
50632;BME280;49583;45.590;-122.498;2023-07-02T02:23:10;101467.92;;;28.76;30.90
50632;BME280;49583;45.590;-122.498;2023-07-02T02:25:23;101467.80;;;28.72;31.01
50632;BME280;49583;45.590;-122.498;2023-07-02T02:27:36;101470.96;;;28.68;31.15
50632;BME280;49583;45.590;-122.498;2023-07-02T02:29:50;101470.39;;;28.64;31.22
50632;BME280;49583;45.590;-122.498;2023-07-02T02:32:03;101468.48;;;28.59;31.27
50632;BME280;49583;45.590;-122.498;2023-07-02T02:34:16;101467.58;;;28.54;31.15
50632;BME280;49583;45.590;-122.498;2023-07-02T02:36:29;101463.52;;;28.49;31.38
50632;BME280;49583;45.590;-122.498;2023-07-02T02:38:42;101467.78;;;28.43;31.33
50632;BME280;49583;45.590;-122.498;2023-07-02T02:40:55;101467.95;;;28.37;31.42
50632;BME280;49583;45.590;-122.498;2023-07-02T02:43:08;101467.39;;;28.31;31.51
50632;BME280;49583;45.590;-122.498;2023-07-02T02:45:21;101471.56;;;28.27;31.59
50632;BME280;49583;45.590;-122.498;2023-07-02T02:47:34;101473.80;;;28.24;31.58
50632;BME280;49583;45.590;-122.498;2023-07-02T02:49:47;101470.96;;;28.18;31.70
50632;BME280;49583;45.590;-122.498;2023-07-02T02:52:00;101472.08;;;28.14;31.88
50632;BME280;49583;45.590;-122.498;2023-07-02T02:54:13;101475.52;;;28.08;31.92
50632;BME280;49583;45.590;-122.498;2023-07-02T02:56:26;101472.10;;;27.98;31.87
50632;BME280;49583;45.590;-122.498;2023-07-02T02:58:39;101474.23;;;27.89;32.02
50632;BME280;49583;45.590;-122.498;2023-07-02T03:00:52;101479.63;;;27.80;31.74
50632;BME280;49583;45.590;-122.498;2023-07-02T03:03:05;101476.09;;;27.74;31.95
50632;BME280;49583;45.590;-122.498;2023-07-02T03:05:18;101478.60;;;27.67;31.94
50632;BME280;49583;45.590;-122.498;2023-07-02T03:07:31;101475.52;;;27.56;32.18
50632;BME280;49583;45.590;-122.498;2023-07-02T03:09:44;101472.23;;;27.48;32.03
50632;BME280;49583;45.590;-122.498;2023-07-02T03:11:57;101474.42;;;27.39;32.25
50632;BME280;49583;45.590;-122.498;2023-07-02T03:14:10;101477.85;;;27.31;32.22
50632;BME280;49583;45.590;-122.498;2023-07-02T03:16:23;101480.23;;;27.23;32.47
50632;BME280;49583;45.590;-122.498;2023-07-02T03:18:36;101481.23;;;27.14;32.51
50632;BME280;49583;45.590;-122.498;2023-07-02T03:20:50;101489.20;;;27.07;32.50
50632;BME280;49583;45.590;-122.498;2023-07-02T03:23:03;101489.27;;;26.99;32.71
50632;BME280;49583;45.590;-122.498;2023-07-02T03:25:16;101487.02;;;26.90;32.73
50632;BME280;49583;45.590;-122.498;2023-07-02T03:27:29;101486.23;;;26.83;32.86
50632;BME280;49583;45.590;-122.498;2023-07-02T03:29:42;101483.16;;;26.76;33.01
50632;BME280;49583;45.590;-122.498;2023-07-02T03:31:55;101481.92;;;26.70;33.13
50632;BME280;49583;45.590;-122.498;2023-07-02T03:34:09;101479.85;;;26.64;33.21
50632;BME280;49583;45.590;-122.498;2023-07-02T03:36:22;101477.83;;;26.58;33.18
50632;BME280;49583;45.590;-122.498;2023-07-02T03:38:35;101476.68;;;26.51;33.30
50632;BME280;49583;45.590;-122.498;2023-07-02T03:40:48;101480.03;;;26.41;33.39
50632;BME280;49583;45.590;-122.498;2023-07-02T03:43:01;101477.55;;;26.33;33.53
50632;BME280;49583;45.590;-122.498;2023-07-02T03:45:14;101475.36;;;26.23;33.66
50632;BME280;49583;45.590;-122.498;2023-07-02T03:47:27;101475.48;;;26.14;33.69
50632;BME280;49583;45.590;-122.498;2023-07-02T03:49:40;101476.12;;;26.06;33.86
50632;BME280;49583;45.590;-122.498;2023-07-02T03:51:53;101479.95;;;25.98;34.02
50632;BME280;49583;45.590;-122.498;2023-07-02T03:54:06;101477.04;;;25.91;34.18
50632;BME280;49583;45.590;-122.498;2023-07-02T03:56:22;101477.29;;;25.83;34.19
50632;BME280;49583;45.590;-122.498;2023-07-02T03:58:35;101474.20;;;25.76;34.27
50632;BME280;49583;45.590;-122.498;2023-07-02T04:00:50;101480.47;;;25.67;34.59
50632;BME280;49583;45.590;-122.498;2023-07-02T04:03:03;101479.20;;;25.61;34.63
50632;BME280;49583;45.590;-122.498;2023-07-02T04:05:17;101478.90;;;25.54;34.71
50632;BME280;49583;45.590;-122.498;2023-07-02T04:07:30;101478.92;;;25.44;34.85
50632;BME280;49583;45.590;-122.498;2023-07-02T04:09:43;101480.71;;;25.34;34.95
50632;BME280;49583;45.590;-122.498;2023-07-02T04:11:56;101482.15;;;25.25;35.21
50632;BME280;49583;45.590;-122.498;2023-07-02T04:14:08;101483.70;;;25.18;35.28
50632;BME280;49583;45.590;-122.498;2023-07-02T04:16:21;101488.39;;;25.10;35.43
50632;BME280;49583;45.590;-122.498;2023-07-02T04:18:34;101491.89;;;25.02;35.69
50632;BME280;49583;45.590;-122.498;2023-07-02T04:20:46;101493.21;;;24.94;35.87
50632;BME280;49583;45.590;-122.498;2023-07-02T04:22:59;101494.08;;;24.86;36.02
50632;BME280;49583;45.590;-122.498;2023-07-02T04:25:14;101492.94;;;24.80;36.01
50632;BME280;49583;45.590;-122.498;2023-07-02T04:27:47;101494.95;;;24.74;36.26
50632;BME280;49583;45.590;-122.498;2023-07-02T04:30:00;101495.30;;;24.67;36.46
50632;BME280;49583;45.590;-122.498;2023-07-02T04:32:13;101495.39;;;24.59;36.58
50632;BME280;49583;45.590;-122.498;2023-07-02T04:34:26;101493.97;;;24.52;36.79
50632;BME280;49583;45.590;-122.498;2023-07-02T04:36:39;101497.27;;;24.44;36.97
50632;BME280;49583;45.590;-122.498;2023-07-02T04:38:52;101499.71;;;24.35;37.17
50632;BME280;49583;45.590;-122.498;2023-07-02T04:41:05;101498.19;;;24.28;37.23
50632;BME280;49583;45.590;-122.498;2023-07-02T04:43:20;101499.29;;;24.21;37.33
50632;BME280;49583;45.590;-122.498;2023-07-02T04:45:35;101502.69;;;24.14;37.55
50632;BME280;49583;45.590;-122.498;2023-07-02T04:47:50;101508.03;;;24.07;37.56
50632;BME280;49583;45.590;-122.498;2023-07-02T04:50:03;101510.80;;;24.01;37.70
50632;BME280;49583;45.590;-122.498;2023-07-02T04:52:16;101511.37;;;23.93;37.74
50632;BME280;49583;45.590;-122.498;2023-07-02T04:54:29;101509.27;;;23.86;38.02
50632;BME280;49583;45.590;-122.498;2023-07-02T04:56:42;101515.13;;;23.81;38.11
50632;BME280;49583;45.590;-122.498;2023-07-02T04:58:58;101512.70;;;23.75;38.32
50632;BME280;49583;45.590;-122.498;2023-07-02T05:01:11;101517.77;;;23.69;38.63
50632;BME280;49583;45.590;-122.498;2023-07-02T05:03:24;101521.96;;;23.63;38.66
50632;BME280;49583;45.590;-122.498;2023-07-02T05:05:37;101519.77;;;23.56;38.99
50632;BME280;49583;45.590;-122.498;2023-07-02T05:07:49;101522.03;;;23.50;39.15
50632;BME280;49583;45.590;-122.498;2023-07-02T05:10:02;101522.85;;;23.44;39.15
50632;BME280;49583;45.590;-122.498;2023-07-02T05:12:14;101526.63;;;23.38;39.38
50632;BME280;49583;45.590;-122.498;2023-07-02T05:14:27;101523.23;;;23.32;39.39
50632;BME280;49583;45.590;-122.498;2023-07-02T05:16:39;101519.50;;;23.25;39.66
50632;BME280;49583;45.590;-122.498;2023-07-02T05:18:52;101522.25;;;23.19;39.73
50632;BME280;49583;45.590;-122.498;2023-07-02T05:21:05;101516.52;;;23.09;39.81
50632;BME280;49583;45.590;-122.498;2023-07-02T05:23:18;101513.77;;;23.02;39.99
50632;BME280;49583;45.590;-122.498;2023-07-02T05:25:31;101514.67;;;22.95;40.06
50632;BME280;49583;45.590;-122.498;2023-07-02T05:27:44;101520.54;;;22.88;40.16
50632;BME280;49583;45.590;-122.498;2023-07-02T05:29:58;101527.71;;;22.83;40.32
50632;BME280;49583;45.590;-122.498;2023-07-02T05:32:10;101525.27;;;22.77;40.40
50632;BME280;49583;45.590;-122.498;2023-07-02T05:34:23;101525.13;;;22.73;40.47
50632;BME280;49583;45.590;-122.498;2023-07-02T05:36:37;101525.27;;;22.69;40.59
50632;BME280;49583;45.590;-122.498;2023-07-02T05:38:51;101521.56;;;22.61;40.58
50632;BME280;49583;45.590;-122.498;2023-07-02T05:41:04;101524.81;;;22.57;40.81
50632;BME280;49583;45.590;-122.498;2023-07-02T05:43:17;101526.68;;;22.48;41.08
50632;BME280;49583;45.590;-122.498;2023-07-02T05:45:30;101524.09;;;22.40;41.11
50632;BME280;49583;45.590;-122.498;2023-07-02T05:47:43;101530.03;;;22.32;41.39
50632;BME280;49583;45.590;-122.498;2023-07-02T05:49:56;101530.52;;;22.24;41.44
50632;BME280;49583;45.590;-122.498;2023-07-02T05:52:09;101533.40;;;22.17;41.58
50632;BME280;49583;45.590;-122.498;2023-07-02T05:54:22;101531.91;;;22.10;41.66
50632;BME280;49583;45.590;-122.498;2023-07-02T05:56:35;101530.16;;;22.03;41.84
50632;BME280;49583;45.590;-122.498;2023-07-02T05:58:48;101528.64;;;21.98;41.92
50632;BME280;49583;45.590;-122.498;2023-07-02T06:01:01;101530.17;;;21.92;41.96
50632;BME280;49583;45.590;-122.498;2023-07-02T06:03:15;101529.69;;;21.87;42.10
50632;BME280;49583;45.590;-122.498;2023-07-02T06:05:29;101526.80;;;21.82;42.33
50632;BME280;49583;45.590;-122.498;2023-07-02T06:07:44;101525.98;;;21.76;42.49
50632;BME280;49583;45.590;-122.498;2023-07-02T06:09:57;101525.24;;;21.71;42.67
50632;BME280;49583;45.590;-122.498;2023-07-02T06:12:11;101524.43;;;21.66;42.68
50632;BME280;49583;45.590;-122.498;2023-07-02T06:14:24;101519.05;;;21.62;42.71
50632;BME280;49583;45.590;-122.498;2023-07-02T06:16:37;101520.23;;;21.56;42.90
50632;BME280;49583;45.590;-122.498;2023-07-02T06:18:51;101522.52;;;21.50;43.09
50632;BME280;49583;45.590;-122.498;2023-07-02T06:21:06;101519.52;;;21.46;43.22
50632;BME280;49583;45.590;-122.498;2023-07-02T06:23:19;101521.24;;;21.43;43.28
50632;BME280;49583;45.590;-122.498;2023-07-02T06:25:32;101524.53;;;21.40;43.39
50632;BME280;49583;45.590;-122.498;2023-07-02T06:27:46;101523.23;;;21.35;43.44
50632;BME280;49583;45.590;-122.498;2023-07-02T06:29:59;101520.83;;;21.29;43.56
50632;BME280;49583;45.590;-122.498;2023-07-02T06:32:11;101522.77;;;21.23;43.67
50632;BME280;49583;45.590;-122.498;2023-07-02T06:34:24;101527.29;;;21.18;43.81
50632;BME280;49583;45.590;-122.498;2023-07-02T06:36:37;101526.27;;;21.13;43.91
50632;BME280;49583;45.590;-122.498;2023-07-02T06:38:50;101524.58;;;21.05;44.00
50632;BME280;49583;45.590;-122.498;2023-07-02T06:41:03;101523.27;;;20.99;44.01
50632;BME280;49583;45.590;-122.498;2023-07-02T06:43:16;101524.19;;;20.94;44.23
50632;BME280;49583;45.590;-122.498;2023-07-02T06:45:28;101530.11;;;20.90;44.40
50632;BME280;49583;45.590;-122.498;2023-07-02T06:47:41;101524.59;;;20.83;44.45
50632;BME280;49583;45.590;-122.498;2023-07-02T06:49:54;101528.20;;;20.80;44.52
50632;BME280;49583;45.590;-122.498;2023-07-02T06:52:07;101525.61;;;20.74;44.68
50632;BME280;49583;45.590;-122.498;2023-07-02T06:54:19;101523.18;;;20.69;44.68
50632;BME280;49583;45.590;-122.498;2023-07-02T06:56:32;101524.09;;;20.64;44.82
50632;BME280;49583;45.590;-122.498;2023-07-02T06:58:45;101527.85;;;20.60;45.00
50632;BME280;49583;45.590;-122.498;2023-07-02T07:01:01;101526.93;;;20.55;45.01
50632;BME280;49583;45.590;-122.498;2023-07-02T07:03:13;101526.81;;;20.49;45.14
50632;BME280;49583;45.590;-122.498;2023-07-02T07:05:26;101528.89;;;20.45;45.26
50632;BME280;49583;45.590;-122.498;2023-07-02T07:07:39;101530.77;;;20.39;45.33
50632;BME280;49583;45.590;-122.498;2023-07-02T07:09:51;101529.98;;;20.32;45.49
50632;BME280;49583;45.590;-122.498;2023-07-02T07:12:06;101528.42;;;20.26;45.54
50632;BME280;49583;45.590;-122.498;2023-07-02T07:14:19;101529.55;;;20.20;45.66
50632;BME280;49583;45.590;-122.498;2023-07-02T07:16:31;101524.48;;;20.15;45.83
50632;BME280;49583;45.590;-122.498;2023-07-02T07:18:46;101529.03;;;20.13;46.00
50632;BME280;49583;45.590;-122.498;2023-07-02T07:20:58;101528.02;;;20.09;46.11
50632;BME280;49583;45.590;-122.498;2023-07-02T07:23:11;101529.70;;;20.05;46.20
50632;BME280;49583;45.590;-122.498;2023-07-02T07:25:24;101525.67;;;20.00;46.28
50632;BME280;49583;45.590;-122.498;2023-07-02T07:27:37;101527.83;;;19.96;46.32
50632;BME280;49583;45.590;-122.498;2023-07-02T07:29:50;101522.76;;;19.92;46.41
50632;BME280;49583;45.590;-122.498;2023-07-02T07:32:02;101526.04;;;19.86;46.49
50632;BME280;49583;45.590;-122.498;2023-07-02T07:34:15;101526.77;;;19.81;46.60
50632;BME280;49583;45.590;-122.498;2023-07-02T07:36:28;101526.30;;;19.78;46.75
50632;BME280;49583;45.590;-122.498;2023-07-02T07:38:42;101525.52;;;19.74;46.89
50632;BME280;49583;45.590;-122.498;2023-07-02T07:40:55;101527.42;;;19.69;46.99
50632;BME280;49583;45.590;-122.498;2023-07-02T07:43:08;101528.33;;;19.65;46.98
50632;BME280;49583;45.590;-122.498;2023-07-02T07:45:22;101531.41;;;19.61;47.09
50632;BME280;49583;45.590;-122.498;2023-07-02T07:47:34;101531.91;;;19.57;47.18
50632;BME280;49583;45.590;-122.498;2023-07-02T07:49:47;101531.42;;;19.54;47.24
50632;BME280;49583;45.590;-122.498;2023-07-02T07:52:00;101533.44;;;19.50;47.38
50632;BME280;49583;45.590;-122.498;2023-07-02T07:54:13;101533.89;;;19.46;47.40
50632;BME280;49583;45.590;-122.498;2023-07-02T07:56:26;101534.85;;;19.42;47.62
50632;BME280;49583;45.590;-122.498;2023-07-02T07:58:39;101538.80;;;19.37;47.68
50632;BME280;49583;45.590;-122.498;2023-07-02T08:00:52;101537.48;;;19.33;47.78
50632;BME280;49583;45.590;-122.498;2023-07-02T08:03:04;101534.53;;;19.28;47.95
50632;BME280;49583;45.590;-122.498;2023-07-02T08:05:17;101537.32;;;19.25;47.91
50632;BME280;49583;45.590;-122.498;2023-07-02T08:07:33;101536.43;;;19.22;48.04
50632;BME280;49583;45.590;-122.498;2023-07-02T08:09:46;101534.23;;;19.19;48.12
50632;BME280;49583;45.590;-122.498;2023-07-02T08:11:59;101533.44;;;19.16;48.20
50632;BME280;49583;45.590;-122.498;2023-07-02T08:14:13;101533.50;;;19.14;48.41
50632;BME280;49583;45.590;-122.498;2023-07-02T08:16:25;101533.59;;;19.09;48.43
50632;BME280;49583;45.590;-122.498;2023-07-02T08:18:38;101531.83;;;19.05;48.45
50632;BME280;49583;45.590;-122.498;2023-07-02T08:20:51;101531.05;;;19.01;48.60
50632;BME280;49583;45.590;-122.498;2023-07-02T08:23:03;101536.13;;;18.99;48.63
50632;BME280;49583;45.590;-122.498;2023-07-02T08:25:16;101534.48;;;18.96;48.69
50632;BME280;49583;45.590;-122.498;2023-07-02T08:27:31;101543.34;;;18.94;48.76
50632;BME280;49583;45.590;-122.498;2023-07-02T08:29:44;101541.19;;;18.90;48.87
50632;BME280;49583;45.590;-122.498;2023-07-02T08:31:57;101540.79;;;18.85;48.91
50632;BME280;49583;45.590;-122.498;2023-07-02T08:34:10;101545.85;;;18.81;49.02
50632;BME280;49583;45.590;-122.498;2023-07-02T08:36:23;101543.63;;;18.75;49.24
50632;BME280;49583;45.590;-122.498;2023-07-02T08:38:35;101544.35;;;18.72;49.25
50632;BME280;49583;45.590;-122.498;2023-07-02T08:40:51;101544.33;;;18.67;49.30
50632;BME280;49583;45.590;-122.498;2023-07-02T08:43:03;101543.69;;;18.59;49.42
50632;BME280;49583;45.590;-122.498;2023-07-02T08:45:17;101547.56;;;18.58;49.49
50632;BME280;49583;45.590;-122.498;2023-07-02T08:47:29;101552.43;;;18.53;49.66
50632;BME280;49583;45.590;-122.498;2023-07-02T08:49:44;101550.05;;;18.48;49.82
50632;BME280;49583;45.590;-122.498;2023-07-02T08:51:57;101544.16;;;18.44;49.91
50632;BME280;49583;45.590;-122.498;2023-07-02T08:54:10;101545.84;;;18.41;50.04
50632;BME280;49583;45.590;-122.498;2023-07-02T08:56:26;101546.05;;;18.38;50.18
50632;BME280;49583;45.590;-122.498;2023-07-02T08:58:39;101548.81;;;18.36;50.19
50632;BME280;49583;45.590;-122.498;2023-07-02T09:01:10;101548.81;;;18.33;50.36
50632;BME280;49583;45.590;-122.498;2023-07-02T09:03:21;101550.93;;;18.30;50.43
50632;BME280;49583;45.590;-122.498;2023-07-02T09:05:33;101546.09;;;18.28;50.49
50632;BME280;49583;45.590;-122.498;2023-07-02T09:07:53;101547.68;;;18.26;50.51
50632;BME280;49583;45.590;-122.498;2023-07-02T09:10:06;101545.35;;;18.21;50.71
50632;BME280;49583;45.590;-122.498;2023-07-02T09:12:29;101547.31;;;18.16;50.83
50632;BME280;49583;45.590;-122.498;2023-07-02T09:14:42;101549.20;;;18.10;50.94
50632;BME280;49583;45.590;-122.498;2023-07-02T09:17:06;101548.48;;;18.07;50.99
50632;BME280;49583;45.590;-122.498;2023-07-02T09:19:18;101549.24;;;18.03;51.05
50632;BME280;49583;45.590;-122.498;2023-07-02T09:21:40;101542.40;;;17.97;51.19
50632;BME280;49583;45.590;-122.498;2023-07-02T09:23:54;101543.20;;;17.95;51.32
50632;BME280;49583;45.590;-122.498;2023-07-02T09:26:06;101545.94;;;17.92;51.39
50632;BME280;49583;45.590;-122.498;2023-07-02T09:28:20;101544.51;;;17.89;51.49
50632;BME280;49583;45.590;-122.498;2023-07-02T09:30:33;101541.48;;;17.86;51.60
50632;BME280;49583;45.590;-122.498;2023-07-02T09:32:46;101540.02;;;17.82;51.68
50632;BME280;49583;45.590;-122.498;2023-07-02T09:35:00;101544.45;;;17.78;51.77
50632;BME280;49583;45.590;-122.498;2023-07-02T09:37:12;101544.41;;;17.74;51.74
50632;BME280;49583;45.590;-122.498;2023-07-02T09:39:28;101540.98;;;17.69;51.94
50632;BME280;49583;45.590;-122.498;2023-07-02T09:41:42;101540.66;;;17.68;52.08
50632;BME280;49583;45.590;-122.498;2023-07-02T09:43:55;101541.59;;;17.65;52.16
50632;BME280;49583;45.590;-122.498;2023-07-02T09:46:09;101539.11;;;17.61;52.24
50632;BME280;49583;45.590;-122.498;2023-07-02T09:48:26;101541.52;;;17.58;52.31
50632;BME280;49583;45.590;-122.498;2023-07-02T09:50:42;101540.09;;;17.55;52.53
50632;BME280;49583;45.590;-122.498;2023-07-02T09:52:55;101534.69;;;17.54;52.54
50632;BME280;49583;45.590;-122.498;2023-07-02T09:55:09;101535.45;;;17.50;52.67
50632;BME280;49583;45.590;-122.498;2023-07-02T09:57:22;101531.30;;;17.45;52.84
50632;BME280;49583;45.590;-122.498;2023-07-02T09:59:35;101530.11;;;17.42;52.91
50632;BME280;49583;45.590;-122.498;2023-07-02T10:01:47;101528.27;;;17.40;53.00
50632;BME280;49583;45.590;-122.498;2023-07-02T10:04:09;101526.59;;;17.38;53.19
50632;BME280;49583;45.590;-122.498;2023-07-02T10:06:22;101525.38;;;17.36;53.20
50632;BME280;49583;45.590;-122.498;2023-07-02T10:08:35;101525.61;;;17.34;53.27
50632;BME280;49583;45.590;-122.498;2023-07-02T10:10:49;101522.90;;;17.30;53.37
50632;BME280;49583;45.590;-122.498;2023-07-02T10:13:03;101520.18;;;17.25;53.39
50632;BME280;49583;45.590;-122.498;2023-07-02T10:15:26;101523.66;;;17.24;53.53
50632;BME280;49583;45.590;-122.498;2023-07-02T10:17:42;101525.66;;;17.20;53.73
50632;BME280;49583;45.590;-122.498;2023-07-02T10:19:55;101523.36;;;17.17;53.78
50632;BME280;49583;45.590;-122.498;2023-07-02T10:22:08;101518.50;;;17.14;53.86
50632;BME280;49583;45.590;-122.498;2023-07-02T10:24:21;101514.60;;;17.09;53.98
50632;BME280;49583;45.590;-122.498;2023-07-02T10:26:34;101517.71;;;17.06;54.13
50632;BME280;49583;45.590;-122.498;2023-07-02T10:28:58;101518.64;;;17.01;54.21
50632;BME280;49583;45.590;-122.498;2023-07-02T10:34:16;101518.74;;;16.94;54.66
50632;BME280;49583;45.590;-122.498;2023-07-02T10:36:39;101515.60;;;16.88;54.75
50632;BME280;49583;45.590;-122.498;2023-07-02T10:38:52;101514.23;;;16.85;54.89
50632;BME280;49583;45.590;-122.498;2023-07-02T10:41:05;101506.83;;;16.80;55.09
50632;BME280;49583;45.590;-122.498;2023-07-02T10:43:26;101508.27;;;16.80;55.24
50632;BME280;49583;45.590;-122.498;2023-07-02T10:45:40;101507.14;;;16.78;55.35
50632;BME280;49583;45.590;-122.498;2023-07-02T10:47:52;101506.16;;;16.75;55.45
50632;BME280;49583;45.590;-122.498;2023-07-02T10:50:17;101509.30;;;16.73;55.53
50632;BME280;49583;45.590;-122.498;2023-07-02T10:52:39;101508.64;;;16.69;55.61
50632;BME280;49583;45.590;-122.498;2023-07-02T10:54:51;101507.73;;;16.67;55.73
50632;BME280;49583;45.590;-122.498;2023-07-02T10:57:05;101513.02;;;16.64;55.99
50632;BME280;49583;45.590;-122.498;2023-07-02T10:59:28;101514.33;;;16.62;56.00
50632;BME280;49583;45.590;-122.498;2023-07-02T11:01:40;101510.02;;;16.59;56.14
50632;BME280;49583;45.590;-122.498;2023-07-02T11:04:01;101509.74;;;16.58;56.23
50632;BME280;49583;45.590;-122.498;2023-07-02T11:06:14;101508.39;;;16.55;56.44
50632;BME280;49583;45.590;-122.498;2023-07-02T11:08:36;101509.77;;;16.53;56.42
50632;BME280;49583;45.590;-122.498;2023-07-02T11:10:49;101509.91;;;16.50;56.50
50632;BME280;49583;45.590;-122.498;2023-07-02T11:13:12;101507.38;;;16.48;56.56
50632;BME280;49583;45.590;-122.498;2023-07-02T11:15:25;101508.75;;;16.45;56.76